Time;durP1;ratioP1;P1;durP2;ratioP2;P2;SDS_P1;SDS_P2;PMS_P1;PMS_P2;Temp;Humidity;BMP_temperature;BMP_pressure;BME280_temperature;BME280_humidity;BME280_pressure;Samples;Min_cycle;Max_cycle;Signal;HPM_P1;HPM_P2
2022/02/21 00:02:05;;;;;;;5.32;0.55;;;;;;;;;;4979869;28;20045;-62
2022/02/21 00:04:31;;;;;;;10.90;1.25;;;;;;;;;;4979913;28;20085;-63
2022/02/21 00:06:56;;;;;;;7.95;0.85;;;;;;;;;;4960751;28;20056;-60
2022/02/21 00:09:29;;;;;;;20.30;2.05;;;;;;;;;;4964911;28;20347;-61
2022/02/21 00:11:55;;;;;;;16.15;2.15;;;;;;;;;;4963651;28;20128;-61
2022/02/21 00:14:22;;;;;;;16.58;1.80;;;;;;;;;;4967859;28;20037;-59
2022/02/21 00:16:50;;;;;;;13.63;1.75;;;;;;;;;;4964191;28;21213;-58
2022/02/21 00:19:18;;;;;;;19.75;2.08;;;;;;;;;;4978468;28;20034;-58
2022/02/21 00:21:46;;;;;;;15.00;2.35;;;;;;;;;;4977450;28;20053;-58
2022/02/21 00:24:11;;;;;;;12.43;1.85;;;;;;;;;;4977742;28;20026;-59
2022/02/21 00:26:39;;;;;;;15.60;2.05;;;;;;;;;;4961365;28;20021;-59
2022/02/21 00:29:08;;;;;;;22.23;3.03;;;;;;;;;;4965543;28;20037;-62
2022/02/21 00:31:36;;;;;;;31.95;3.30;;;;;;;;;;4964530;28;20045;-59
2022/02/21 00:34:04;;;;;;;26.38;3.22;;;;;;;;;;4978812;28;20029;-59
2022/02/21 00:36:34;;;;;;;21.88;2.95;;;;;;;;;;4978776;28;20033;-59
2022/02/21 00:39:03;;;;;;;32.97;2.65;;;;;;;;;;4977416;28;20049;-58
2022/02/21 00:41:33;;;;;;;16.25;2.25;;;;;;;;;;4964673;28;20357;-61
2022/02/21 00:44:04;;;;;;;16.92;3.08;;;;;;;;;;4977143;28;20080;-60
2022/02/21 00:46:29;;;;;;;18.30;2.25;;;;;;;;;;4978884;28;20026;-59
2022/02/21 00:48:55;;;;;;;26.92;3.50;;;;;;;;;;4974803;28;20548;-60
2022/02/21 00:51:22;;;;;;;29.95;2.47;;;;;;;;;;4963996;28;20512;-58
2022/02/21 00:53:50;;;;;;;24.35;3.45;;;;;;;;;;4961153;28;20042;-59
2022/02/21 00:56:15;;;;;;;19.50;2.83;;;;;;;;;;4960022;28;20043;-60
2022/02/21 00:58:49;;;;;;;20.25;2.10;;;;;;;;;;4965555;28;20092;-60
2022/02/21 01:01:16;;;;;;;32.97;3.03;;;;;;;;;;4976323;28;20034;-60
2022/02/21 01:03:43;;;;;;;32.35;3.17;;;;;;;;;;4978225;28;20021;-59
2022/02/21 01:06:11;;;;;;;31.90;3.42;;;;;;;;;;4961698;28;20044;-59
2022/02/21 01:08:39;;;;;;;15.85;2.58;;;;;;;;;;4950510;28;20052;-59
2022/02/21 01:11:06;;;;;;;24.75;3.72;;;;;;;;;;4978390;28;20112;-59
2022/02/21 01:13:34;;;;;;;22.23;3.92;;;;;;;;;;4979417;28;20435;-60
2022/02/21 01:16:04;;;;;;;24.13;3.00;;;;;;;;;;4947364;28;20081;-61
2022/02/21 01:18:34;;;;;;;27.10;4.03;;;;;;;;;;4978098;28;20045;-60
2022/02/21 01:21:01;;;;;;;36.92;3.90;;;;;;;;;;4962910;28;20038;-60
2022/02/21 01:23:29;;;;;;;19.63;2.50;;;;;;;;;;4962929;28;20956;-59
2022/02/21 01:25:56;;;;;;;22.33;3.10;;;;;;;;;;4958850;28;20080;-60
2022/02/21 01:28:27;;;;;;;35.85;3.03;;;;;;;;;;4965441;28;20547;-60
2022/02/21 01:30:54;;;;;;;29.02;3.15;;;;;;;;;;4977659;28;20025;-60
2022/02/21 01:33:22;;;;;;;14.80;2.70;;;;;;;;;;4966626;28;20045;-60
2022/02/21 01:35:48;;;;;;;13.65;2.58;;;;;;;;;;4979890;28;20120;-58
2022/02/21 01:38:16;;;;;;;18.00;3.28;;;;;;;;;;4980458;28;20046;-60
2022/02/21 01:40:42;;;;;;;20.00;3.35;;;;;;;;;;4981060;28;20049;-62
2022/02/21 01:43:07;;;;;;;28.90;3.63;;;;;;;;;;4978732;28;20038;-59
2022/02/21 01:45:32;;;;;;;29.70;3.28;;;;;;;;;;4968243;28;20044;-59
2022/02/21 01:48:00;;;;;;;16.13;2.38;;;;;;;;;;4965741;28;20050;-59
2022/02/21 01:50:28;;;;;;;23.08;2.55;;;;;;;;;;4969665;28;20050;-58
2022/02/21 01:52:54;;;;;;;42.00;3.97;;;;;;;;;;4980422;28;20144;-59
2022/02/21 01:55:21;;;;;;;20.55;3.30;;;;;;;;;;4964474;28;20096;-60
2022/02/21 01:57:48;;;;;;;40.90;3.92;;;;;;;;;;4966486;28;20590;-60
2022/02/21 02:00:16;;;;;;;20.20;2.92;;;;;;;;;;4966279;28;20068;-60
2022/02/21 02:02:47;;;;;;;46.33;3.85;;;;;;;;;;4980684;28;20046;-59
2022/02/21 02:05:15;;;;;;;30.20;3.30;;;;;;;;;;4979530;28;20561;-59
2022/02/21 02:07:41;;;;;;;29.40;3.10;;;;;;;;;;4984191;28;20022;-60
2022/02/21 02:10:07;;;;;;;27.92;4.18;;;;;;;;;;4948926;28;20961;-59
2022/02/21 02:12:33;;;;;;;35.55;3.42;;;;;;;;;;4968038;28;20518;-63
2022/02/21 02:15:01;;;;;;;17.85;3.10;;;;;;;;;;4978133;28;20037;-60
2022/02/21 02:17:26;;;;;;;25.40;2.47;;;;;;;;;;4981092;28;20034;-62
2022/02/21 02:19:54;;;;;;;28.75;3.97;;;;;;;;;;4950449;28;20073;-62
2022/02/21 02:22:21;;;;;;;22.92;4.22;;;;;;;;;;4963277;28;20084;-60
2022/02/21 02:24:50;;;;;;;15.82;2.22;;;;;;;;;;4980092;28;20157;-59
2022/02/21 02:27:21;;;;;;;28.48;3.08;;;;;;;;;;4963941;28;20030;-61
2022/02/21 02:29:48;;;;;;;31.52;3.97;;;;;;;;;;4979367;28;20033;-59
2022/02/21 02:32:20;;;;;;;24.85;3.20;;;;;;;;;;4980111;28;20034;-59
2022/02/21 02:34:51;;;;;;;20.00;2.92;;;;;;;;;;4980147;28;20112;-62
2022/02/21 02:37:21;;;;;;;19.90;2.92;;;;;;;;;;4981729;28;20040;-61
2022/02/21 02:39:47;;;;;;;28.52;2.92;;;;;;;;;;4979221;28;20069;-60
2022/02/21 02:42:13;;;;;;;26.13;3.15;;;;;;;;;;4964735;28;20776;-60
2022/02/21 02:44:41;;;;;;;31.25;3.67;;;;;;;;;;4978005;28;20030;-60
2022/02/21 02:47:10;;;;;;;19.20;3.47;;;;;;;;;;4979920;28;20045;-59
2022/02/21 02:49:36;;;;;;;18.58;3.25;;;;;;;;;;4980612;28;20145;-60
2022/02/21 02:52:05;;;;;;;18.25;3.70;;;;;;;;;;4965293;28;20793;-62
2022/02/21 02:54:35;;;;;;;30.52;3.03;;;;;;;;;;4952052;28;20042;-60
2022/02/21 02:57:01;;;;;;;23.30;3.55;;;;;;;;;;4949596;28;20551;-58
2022/02/21 02:59:29;;;;;;;23.85;3.40;;;;;;;;;;4979858;28;20041;-63
2022/02/21 03:01:55;;;;;;;16.70;2.38;;;;;;;;;;4961886;28;20034;-60
2022/02/21 03:04:24;;;;;;;14.30;3.22;;;;;;;;;;4979063;28;20041;-61
2022/02/21 03:06:52;;;;;;;30.92;4.20;;;;;;;;;;4978990;28;20034;-62
2022/02/21 03:09:18;;;;;;;17.80;3.60;;;;;;;;;;4980593;28;20610;-62
2022/02/21 03:11:43;;;;;;;19.48;3.88;;;;;;;;;;4965683;28;20029;-60
2022/02/21 03:14:14;;;;;;;24.98;2.95;;;;;;;;;;4977847;28;20089;-61
2022/02/21 03:16:39;;;;;;;22.40;2.92;;;;;;;;;;4967165;28;20033;-61
2022/02/21 03:19:07;;;;;;;32.80;4.22;;;;;;;;;;4980084;28;20116;-60
2022/02/21 03:21:35;;;;;;;23.70;3.55;;;;;;;;;;4977415;28;21963;-61
2022/02/21 03:24:01;;;;;;;25.17;3.65;;;;;;;;;;4964673;28;20577;-60
2022/02/21 03:26:29;;;;;;;31.05;3.45;;;;;;;;;;4980039;28;20038;-60
2022/02/21 03:28:54;;;;;;;23.90;3.40;;;;;;;;;;4966602;28;20034;-60
2022/02/21 03:31:20;;;;;;;19.17;2.70;;;;;;;;;;4976130;28;20379;-60
2022/02/21 03:33:49;;;;;;;14.25;2.05;;;;;;;;;;4979329;28;20104;-61
2022/02/21 03:36:17;;;;;;;22.55;4.03;;;;;;;;;;4949884;28;20084;-61
2022/02/21 03:38:45;;;;;;;14.45;2.67;;;;;;;;;;4978526;28;20042;-60
2022/02/21 03:41:10;;;;;;;21.00;3.63;;;;;;;;;;4960460;28;20030;-59
2022/02/21 03:43:36;;;;;;;8.75;3.00;;;;;;;;;;4980425;28;20041;-60
2022/02/21 03:46:03;;;;;;;21.45;2.78;;;;;;;;;;4967078;28;20037;-60
2022/02/21 03:48:31;;;;;;;23.42;3.25;;;;;;;;;;4981458;28;20157;-61
2022/02/21 03:50:56;;;;;;;10.95;3.08;;;;;;;;;;4959972;28;20045;-63
2022/02/21 03:53:24;;;;;;;14.45;2.65;;;;;;;;;;4948019;28;20041;-61
2022/02/21 03:55:52;;;;;;;16.48;2.95;;;;;;;;;;4961009;28;20030;-60
2022/02/21 03:58:20;;;;;;;23.95;3.50;;;;;;;;;;4963248;28;20082;-61
2022/02/21 04:00:45;;;;;;;16.65;2.47;;;;;;;;;;4963817;28;20038;-60
2022/02/21 04:03:13;;;;;;;17.40;2.53;;;;;;;;;;4976759;28;20050;-59
2022/02/21 04:05:41;;;;;;;16.60;2.83;;;;;;;;;;4962160;28;20037;-61
2022/02/21 04:08:11;;;;;;;11.10;2.05;;;;;;;;;;4966071;28;20026;-60
2022/02/21 04:10:36;;;;;;;13.23;2.88;;;;;;;;;;4977755;28;20037;-61
2022/02/21 04:13:04;;;;;;;19.73;2.35;;;;;;;;;;4964520;28;20070;-64
2022/02/21 04:15:33;;;;;;;26.20;2.60;;;;;;;;;;4961997;28;20045;-62
2022/02/21 04:17:58;;;;;;;16.05;2.60;;;;;;;;;;4979471;28;20026;-61
2022/02/21 04:20:27;;;;;;;36.28;4.28;;;;;;;;;;4978543;28;20029;-60
2022/02/21 04:22:53;;;;;;;21.77;3.00;;;;;;;;;;4963945;28;20034;-60
2022/02/21 04:25:18;;;;;;;19.77;2.40;;;;;;;;;;4978134;28;20034;-60
2022/02/21 04:27:52;;;;;;;16.38;3.20;;;;;;;;;;4977664;28;20036;-60
2022/02/21 04:30:21;;;;;;;18.35;4.50;;;;;;;;;;4976135;28;20090;-60
2022/02/21 04:32:49;;;;;;;23.25;2.45;;;;;;;;;;4980095;28;22452;-62
2022/02/21 04:35:18;;;;;;;15.13;2.13;;;;;;;;;;4960665;28;21961;-60
2022/02/21 04:37:43;;;;;;;30.52;3.80;;;;;;;;;;4977536;28;20034;-60
2022/02/21 04:40:10;;;;;;;21.10;3.72;;;;;;;;;;4961592;28;20516;-60
2022/02/21 04:42:41;;;;;;;19.27;2.67;;;;;;;;;;4975615;28;20157;-60
2022/02/21 04:45:09;;;;;;;13.15;2.58;;;;;;;;;;4979173;28;20311;-61
2022/02/21 04:47:37;;;;;;;23.25;3.45;;;;;;;;;;4964204;28;20029;-59
2022/02/21 04:50:06;;;;;;;24.05;2.90;;;;;;;;;;4961361;28;20054;-61
2022/02/21 04:52:37;;;;;;;24.55;2.67;;;;;;;;;;4964371;28;20631;-60
2022/02/21 04:55:07;;;;;;;18.70;2.58;;;;;;;;;;4978856;28;20040;-60
2022/02/21 04:57:33;;;;;;;26.27;3.40;;;;;;;;;;4961791;28;20040;-60
2022/02/21 05:00:01;;;;;;;22.10;2.38;;;;;;;;;;4963415;28;20042;-60
2022/02/21 05:02:27;;;;;;;19.35;3.10;;;;;;;;;;4947900;28;21009;-60
2022/02/21 05:04:57;;;;;;;33.90;3.72;;;;;;;;;;4961757;28;20040;-65
2022/02/21 05:07:22;;;;;;;33.03;3.35;;;;;;;;;;4964933;28;20026;-61
2022/02/21 05:09:47;;;;;;;24.98;2.85;;;;;;;;;;4967971;28;20038;-62
2022/02/21 05:12:18;;;;;;;19.95;3.47;;;;;;;;;;4965752;28;20030;-61
2022/02/21 05:14:50;;;;;;;15.98;1.92;;;;;;;;;;4965460;28;20159;-61
2022/02/21 05:17:18;;;;;;;21.20;2.85;;;;;;;;;;4953098;28;20137;-61
2022/02/21 05:19:44;;;;;;;27.55;4.35;;;;;;;;;;4984287;28;20030;-61
2022/02/21 05:22:10;;;;;;;14.27;2.55;;;;;;;;;;4980584;28;20555;-62
2022/02/21 05:24:38;;;;;;;22.02;3.55;;;;;;;;;;4981725;28;20061;-60
2022/02/21 05:27:06;;;;;;;23.75;2.78;;;;;;;;;;4980690;28;20038;-61
2022/02/21 05:29:34;;;;;;;19.33;2.75;;;;;;;;;;4966577;28;20022;-62
2022/02/21 05:32:02;;;;;;;19.33;2.63;;;;;;;;;;4952716;28;20507;-60
2022/02/21 05:34:29;;;;;;;11.85;1.88;;;;;;;;;;4967752;28;20038;-60
2022/02/21 05:36:55;;;;;;;7.72;2.03;;;;;;;;;;4980480;28;20073;-60
2022/02/21 05:39:20;;;;;;;26.83;4.65;;;;;;;;;;4967753;28;20030;-60
2022/02/21 05:41:49;;;;;;;12.88;2.85;;;;;;;;;;4973248;28;20046;-60
2022/02/21 05:44:16;;;;;;;18.45;2.97;;;;;;;;;;4979917;28;20148;-60
2022/02/21 05:46:41;;;;;;;16.45;2.30;;;;;;;;;;4937341;28;20026;-59
2022/02/21 05:49:08;;;;;;;26.95;3.20;;;;;;;;;;4983440;28;20056;-60
2022/02/21 05:51:33;;;;;;;18.25;2.30;;;;;;;;;;4963618;28;20039;-61
2022/02/21 05:54:02;;;;;;;19.27;2.78;;;;;;;;;;4968928;28;20030;-61
2022/02/21 05:56:27;;;;;;;19.48;2.22;;;;;;;;;;4982844;28;20126;-60
2022/02/21 05:58:55;;;;;;;22.02;2.72;;;;;;;;;;4966579;28;20189;-60
2022/02/21 06:01:23;;;;;;;23.95;3.75;;;;;;;;;;4950924;28;20117;-61
2022/02/21 06:03:50;;;;;;;24.73;3.83;;;;;;;;;;4966372;28;20057;-61
2022/02/21 06:06:21;;;;;;;22.50;2.88;;;;;;;;;;4952884;28;20048;-59
2022/02/21 06:08:48;;;;;;;10.27;2.55;;;;;;;;;;4965085;28;20041;-62
2022/02/21 06:11:14;;;;;;;15.13;2.15;;;;;;;;;;4965756;28;20030;-60
2022/02/21 06:13:44;;;;;;;19.50;2.50;;;;;;;;;;4980910;28;20037;-61
2022/02/21 06:16:12;;;;;;;18.20;3.95;;;;;;;;;;4981307;28;20037;-60
2022/02/21 06:18:39;;;;;;;21.63;3.03;;;;;;;;;;4963611;28;20414;-61
2022/02/21 06:21:07;;;;;;;19.00;3.28;;;;;;;;;;4968595;28;20037;-61
2022/02/21 06:23:35;;;;;;;23.50;3.30;;;;;;;;;;4967769;28;20042;-59
2022/02/21 06:26:03;;;;;;;24.88;3.00;;;;;;;;;;4977381;28;20061;-61
2022/02/21 06:28:34;;;;;;;15.00;2.47;;;;;;;;;;4966089;28;20189;-61
2022/02/21 06:31:03;;;;;;;25.95;2.50;;;;;;;;;;4964263;28;20034;-60
2022/02/21 06:33:29;;;;;;;18.55;2.25;;;;;;;;;;4979437;28;20042;-59
2022/02/21 06:35:57;;;;;;;16.63;2.78;;;;;;;;;;4980877;28;20568;-61
2022/02/21 06:38:22;;;;;;;25.38;2.72;;;;;;;;;;4947436;28;20067;-61
2022/02/21 06:40:53;;;;;;;13.13;2.83;;;;;;;;;;4967525;28;20149;-60
2022/02/21 06:43:21;;;;;;;15.13;2.50;;;;;;;;;;4979185;28;20053;-60
2022/02/21 06:45:49;;;;;;;14.25;2.53;;;;;;;;;;4982057;28;20045;-62
2022/02/21 06:48:15;;;;;;;20.60;3.08;;;;;;;;;;4967586;28;20031;-61
2022/02/21 06:50:40;;;;;;;13.30;2.03;;;;;;;;;;4961595;28;20076;-59
2022/02/21 06:53:11;;;;;;;15.73;1.70;;;;;;;;;;4977343;28;20030;-60
2022/02/21 06:55:41;;;;;;;21.60;2.35;;;;;;;;;;4978827;28;20041;-62
2022/02/21 06:58:11;;;;;;;9.38;2.50;;;;;;;;;;4979685;28;20543;-63
2022/02/21 07:00:42;;;;;;;15.30;2.53;;;;;;;;;;4981648;28;20065;-60
2022/02/21 07:03:10;;;;;;;10.68;2.17;;;;;;;;;;4963942;28;20453;-62
2022/02/21 07:05:39;;;;;;;25.08;2.35;;;;;;;;;;4981309;28;20030;-61
2022/02/21 07:08:05;;;;;;;20.90;3.47;;;;;;;;;;4981747;28;20147;-61
2022/02/21 07:10:33;;;;;;;14.90;2.80;;;;;;;;;;4948649;28;20581;-59
2022/02/21 07:12:58;;;;;;;21.75;3.50;;;;;;;;;;4978789;28;20038;-61
2022/02/21 07:15:23;;;;;;;17.40;3.35;;;;;;;;;;4964980;28;20468;-60
2022/02/21 07:17:51;;;;;;;30.40;2.85;;;;;;;;;;4978645;28;20045;-60
2022/02/21 07:20:21;;;;;;;15.32;2.30;;;;;;;;;;4982333;28;20030;-60
2022/02/21 07:22:47;;;;;;;25.90;3.22;;;;;;;;;;4965332;28;20046;-60
2022/02/21 07:25:15;;;;;;;15.10;2.17;;;;;;;;;;4981614;28;20044;-60
2022/02/21 07:27:52;;;;;;;18.00;2.75;;;;;;;;;;4979907;28;20739;-59
2022/02/21 07:30:18;;;;;;;29.38;3.60;;;;;;;;;;4983363;28;20100;-59
2022/02/21 07:32:47;;;;;;;26.83;3.47;;;;;;;;;;4949092;28;20416;-62
2022/02/21 07:35:12;;;;;;;17.52;2.35;;;;;;;;;;4962019;28;20104;-61
2022/02/21 07:37:39;;;;;;;25.10;3.20;;;;;;;;;;4964053;28;20484;-60
2022/02/21 07:40:07;;;;;;;31.23;3.42;;;;;;;;;;4967217;28;21160;-61
2022/02/21 07:42:33;;;;;;;18.90;2.88;;;;;;;;;;4966807;28;20374;-59
2022/02/21 07:45:02;;;;;;;17.23;2.38;;;;;;;;;;4962888;28;20041;-59
2022/02/21 07:47:32;;;;;;;17.77;2.67;;;;;;;;;;4957629;28;21485;-59
2022/02/21 07:49:58;;;;;;;17.00;2.72;;;;;;;;;;4980006;28;20137;-60
2022/02/21 07:52:24;;;;;;;23.88;2.53;;;;;;;;;;4958026;28;20982;-61
2022/02/21 07:54:52;;;;;;;18.20;2.72;;;;;;;;;;4960577;28;20030;-59
2022/02/21 07:57:20;;;;;;;19.80;2.67;;;;;;;;;;4964520;28;20091;-59
2022/02/21 07:59:45;;;;;;;26.25;2.70;;;;;;;;;;4975562;28;20092;-59
2022/02/21 08:02:13;;;;;;;28.05;3.05;;;;;;;;;;4978323;28;20138;-59
2022/02/21 08:04:39;;;;;;;21.65;3.08;;;;;;;;;;4963215;28;20034;-60
2022/02/21 08:07:07;;;;;;;23.15;3.15;;;;;;;;;;4978642;28;20045;-60
2022/02/21 08:09:35;;;;;;;21.38;2.90;;;;;;;;;;4979530;28;20049;-59
2022/02/21 08:12:04;;;;;;;13.38;2.42;;;;;;;;;;4948093;28;20129;-59
2022/02/21 08:14:35;;;;;;;18.15;2.70;;;;;;;;;;4963366;28;22117;-64
2022/02/21 08:17:03;;;;;;;21.13;3.28;;;;;;;;;;4978746;28;20068;-59
2022/02/21 08:19:31;;;;;;;17.98;2.88;;;;;;;;;;4963723;28;20115;-62
2022/02/21 08:21:57;;;;;;;18.48;2.78;;;;;;;;;;4966476;28;20121;-59
2022/02/21 08:24:22;;;;;;;26.75;3.83;;;;;;;;;;4982070;28;20393;-61
2022/02/21 08:26:49;;;;;;;18.70;3.03;;;;;;;;;;4979856;28;20069;-59
2022/02/21 08:29:19;;;;;;;14.98;2.22;;;;;;;;;;4979532;28;20573;-61
2022/02/21 08:31:48;;;;;;;13.02;1.48;;;;;;;;;;4960048;28;20482;-59
2022/02/21 08:34:19;;;;;;;9.68;2.20;;;;;;;;;;4961649;28;20062;-59
2022/02/21 08:36:45;;;;;;;15.35;2.28;;;;;;;;;;4979792;28;21036;-59
2022/02/21 08:39:13;;;;;;;25.83;2.58;;;;;;;;;;4941817;28;20040;-58
2022/02/21 08:41:41;;;;;;;14.38;2.33;;;;;;;;;;4980972;28;20740;-60
2022/02/21 08:44:07;;;;;;;16.27;1.70;;;;;;;;;;4965052;28;20041;-60
2022/02/21 08:46:37;;;;;;;11.10;1.40;;;;;;;;;;4966588;28;20026;-60
2022/02/21 08:49:06;;;;;;;17.13;1.90;;;;;;;;;;4979009;28;20683;-61
2022/02/21 08:51:31;;;;;;;25.15;2.40;;;;;;;;;;4981514;28;20069;-61
2022/02/21 08:54:02;;;;;;;8.60;1.27;;;;;;;;;;4967693;28;20121;-60
2022/02/21 08:56:30;;;;;;;2.33;0.30;;;;;;;;;;4953028;28;20069;-60
2022/02/21 08:59:00;;;;;;;12.70;1.38;;;;;;;;;;4982772;28;20065;-62
2022/02/21 09:01:26;;;;;;;1.20;0.38;;;;;;;;;;4983801;28;21667;-62
2022/02/21 09:03:54;;;;;;;4.82;0.52;;;;;;;;;;4965956;28;20038;-64
2022/02/21 09:06:19;;;;;;;1.55;0.40;;;;;;;;;;4969263;28;20041;-65
2022/02/21 09:08:49;;;;;;;1.63;0.35;;;;;;;;;;4967059;28;20170;-66
2022/02/21 09:11:15;;;;;;;1.77;0.50;;;;;;;;;;4968535;28;20050;-62
2022/02/21 09:13:42;;;;;;;0.25;0.10;;;;;;;;;;4981287;28;20378;-64
2022/02/21 09:16:08;;;;;;;3.47;0.50;;;;;;;;;;4967199;28;20065;-65
2022/02/21 09:18:34;;;;;;;2.47;0.52;;;;;;;;;;4967073;28;20053;-64
2022/02/21 09:20:59;;;;;;;3.22;0.93;;;;;;;;;;4964094;28;20061;-64
2022/02/21 09:23:30;;;;;;;5.22;0.65;;;;;;;;;;4967865;28;20763;-64
2022/02/21 09:25:55;;;;;;;4.82;0.93;;;;;;;;;;4968647;28;20030;-62
2022/02/21 09:28:21;;;;;;;1.17;0.40;;;;;;;;;;4980618;28;20112;-63
2022/02/21 09:30:46;;;;;;;3.50;0.45;;;;;;;;;;4950054;28;20036;-63
2022/02/21 09:33:13;;;;;;;2.95;0.47;;;;;;;;;;4965112;28;20045;-63
2022/02/21 09:35:39;;;;;;;3.28;0.50;;;;;;;;;;4968360;28;20046;-63
2022/02/21 09:38:12;;;;;;;3.65;0.90;;;;;;;;;;4980552;28;20108;-63
2022/02/21 09:40:40;;;;;;;3.95;0.32;;;;;;;;;;4952844;28;20138;-63
2022/02/21 09:43:08;;;;;;;2.08;0.30;;;;;;;;;;4965817;28;20034;-65
2022/02/21 09:45:35;;;;;;;4.28;0.40;;;;;;;;;;4980349;28;20076;-64
2022/02/21 09:48:01;;;;;;;7.88;0.80;;;;;;;;;;4968769;28;20026;-63
2022/02/21 09:50:27;;;;;;;4.03;0.47;;;;;;;;;;4981156;28;20045;-64
2022/02/21 09:52:54;;;;;;;6.78;0.60;;;;;;;;;;4979118;28;20033;-63
2022/02/21 09:55:20;;;;;;;1.58;0.30;;;;;;;;;;4979867;28;20022;-62
2022/02/21 09:57:45;;;;;;;0.63;0.40;;;;;;;;;;4980931;28;20596;-62
2022/02/21 10:00:11;;;;;;;3.45;0.55;;;;;;;;;;4979609;28;20095;-62
2022/02/21 10:02:39;;;;;;;3.20;0.40;;;;;;;;;;4950398;28;20045;-64
2022/02/21 10:05:09;;;;;;;1.67;0.20;;;;;;;;;;4966431;28;20029;-62
2022/02/21 10:07:38;;;;;;;2.65;0.50;;;;;;;;;;4979176;28;20045;-63
2022/02/21 10:10:07;;;;;;;1.33;0.52;;;;;;;;;;4979883;28;20022;-63
2022/02/21 10:12:45;;;;;;;2.92;0.68;;;;;;;;;;4968441;28;20041;-63
2022/02/21 10:15:18;;;;;;;3.83;0.75;;;;;;;;;;4964270;28;20100;-63
2022/02/21 10:17:44;;;;;;;2.55;0.80;;;;;;;;;;4963584;28;20380;-62
2022/02/21 10:20:15;;;;;;;2.25;0.63;;;;;;;;;;4964111;28;20038;-62
2022/02/21 10:22:58;;;;;;;0.00;0.00;;;;;;;;;;4978592;28;20549;-62
2022/02/21 10:25:24;;;;;;;1.65;0.77;;;;;;;;;;4965239;28;20039;-62
2022/02/21 10:28:05;;;;;;;0.10;0.10;;;;;;;;;;4964760;28;20416;-63
2022/02/21 10:30:33;;;;;;;0.00;0.00;;;;;;;;;;4966061;28;20038;-62
2022/02/21 10:33:10;;;;;;;0.00;0.00;;;;;;;;;;4978853;28;20570;-62
2022/02/21 10:35:38;;;;;;;;;;;;;;;;;;4967443;28;20835;-63
2022/02/21 10:38:03;;;;;;;0.00;0.00;;;;;;;;;;4981399;28;20566;-63
2022/02/21 10:40:35;;;;;;;0.00;0.00;;;;;;;;;;4965716;28;20072;-64
2022/02/21 10:43:11;;;;;;;0.00;0.00;;;;;;;;;;4951289;28;20049;-63
2022/02/21 10:45:39;;;;;;;0.43;0.43;;;;;;;;;;4981227;28;20017;-62
2022/02/21 10:48:05;;;;;;;0.00;0.00;;;;;;;;;;4977840;28;22207;-65
2022/02/21 10:50:35;;;;;;;0.17;0.17;;;;;;;;;;4962135;28;20045;-64
2022/02/21 10:53:11;;;;;;;0.00;0.00;;;;;;;;;;4963584;28;20045;-62
2022/02/21 10:55:37;;;;;;;0.00;0.00;;;;;;;;;;4948084;28;20042;-63
2022/02/21 10:58:27;;;;;;;0.00;0.00;;;;;;;;;;4950793;28;20037;-63
2022/02/21 11:00:55;;;;;;;0.00;0.00;;;;;;;;;;4979196;28;20034;-63
2022/02/21 11:03:32;;;;;;;0.00;0.00;;;;;;;;;;4978326;28;20084;-64
2022/02/21 11:06:02;;;;;;;0.00;0.00;;;;;;;;;;4950338;28;20038;-62
2022/02/21 11:08:33;;;;;;;0.00;0.00;;;;;;;;;;4949764;28;20077;-63
2022/02/21 11:11:10;;;;;;;0.00;0.00;;;;;;;;;;4957014;28;20021;-63
2022/02/21 11:13:36;;;;;;;0.00;0.00;;;;;;;;;;4960037;28;20088;-65
2022/02/21 11:16:02;;;;;;;0.00;0.00;;;;;;;;;;4981380;28;20022;-65
2022/02/21 11:18:28;;;;;;;0.00;0.00;;;;;;;;;;4975996;28;20393;-63
2022/02/21 11:20:53;;;;;;;0.47;0.47;;;;;;;;;;4965513;28;20037;-63
2022/02/21 11:23:24;;;;;;;0.32;0.32;;;;;;;;;;4966077;28;20638;-63
2022/02/21 11:25:55;;;;;;;0.00;0.00;;;;;;;;;;4950686;28;20037;-64
2022/02/21 11:28:21;;;;;;;34.67;1.65;;;;;;;;;;4977221;28;20533;-64
2022/02/21 11:30:48;;;;;;;0.00;0.00;;;;;;;;;;4979379;28;20676;-62
2022/02/21 11:33:18;;;;;;;0.10;0.10;;;;;;;;;;4961403;28;20061;-62
2022/02/21 11:36:02;;;;;;;0.00;0.00;;;;;;;;;;4980489;28;20054;-63
2022/02/21 11:38:29;;;;;;;0.00;0.00;;;;;;;;;;4961030;28;20046;-61
2022/02/21 11:40:54;;;;;;;0.15;0.15;;;;;;;;;;4946329;28;20908;-61
2022/02/21 11:43:41;;;;;;;0.00;0.00;;;;;;;;;;4963049;28;20045;-63
2022/02/21 11:46:11;;;;;;;0.00;0.00;;;;;;;;;;4965681;28;20029;-61
2022/02/21 11:48:55;;;;;;;0.55;0.43;;;;;;;;;;4960359;28;20026;-61
2022/02/21 11:51:27;;;;;;;0.00;0.00;;;;;;;;;;4977552;28;20688;-62
2022/02/21 11:53:53;;;;;;;0.00;0.00;;;;;;;;;;4943360;28;20053;-61
2022/02/21 11:56:42;;;;;;;0.03;0.03;;;;;;;;;;4980731;28;20445;-62
2022/02/21 11:59:23;;;;;;;0.00;0.00;;;;;;;;;;4948312;28;20034;-62
2022/02/21 12:02:03;;;;;;;0.00;0.00;;;;;;;;;;4976883;28;20038;-61
2022/02/21 12:04:47;;;;;;;1.75;1.23;;;;;;;;;;4974900;28;20034;-63
2022/02/21 12:07:22;;;;;;;0.00;0.00;;;;;;;;;;4976903;28;20141;-60
2022/02/21 12:10:06;;;;;;;1.25;1.25;;;;;;;;;;4976716;28;20095;-64
2022/02/21 12:12:47;;;;;;;0.00;0.00;;;;;;;;;;4947939;28;20041;-64
2022/02/21 12:15:13;;;;;;;0.00;0.00;;;;;;;;;;4978076;28;20038;-62
2022/02/21 12:17:38;;;;;;;23.10;1.08;;;;;;;;;;4976172;28;20076;-65
2022/02/21 12:20:23;;;;;;;0.08;0.08;;;;;;;;;;4959270;28;20045;-62
2022/02/21 12:23:06;;;;;;;1.27;1.17;;;;;;;;;;4977216;28;20181;-64
2022/02/21 12:25:38;;;;;;;0.00;0.00;;;;;;;;;;4960098;28;20030;-63
2022/02/21 12:28:39;;;;;;;0.30;0.30;;;;;;;;;;4956227;28;20030;-60
2022/02/21 12:31:20;;;;;;;1.17;0.55;;;;;;;;;;4925608;28;20497;-64
2022/02/21 12:33:56;;;;;;;3.83;1.45;;;;;;;;;;4958146;28;20038;-63
2022/02/21 12:36:24;;;;;;;0.32;0.32;;;;;;;;;;4982594;28;20045;-58
2022/02/21 12:38:59;;;;;;;0.45;0.30;;;;;;;;;;4976042;28;20053;-62
2022/02/21 12:41:35;;;;;;;1.25;0.98;;;;;;;;;;4976896;28;20040;-61
2022/02/21 12:44:04;;;;;;;1.27;0.52;;;;;;;;;;4974703;28;20131;-61
2022/02/21 12:46:34;;;;;;;2.70;2.42;;;;;;;;;;4977578;28;20565;-59
2022/02/21 12:49:01;;;;;;;9.07;0.98;;;;;;;;;;4944652;28;22013;-61
2022/02/21 12:51:34;;;;;;;0.10;0.10;;;;;;;;;;4976032;28;20072;-60
2022/02/21 12:54:04;;;;;;;1.02;0.82;;;;;;;;;;4962875;28;20104;-61
2022/02/21 12:56:41;;;;;;;12.05;2.40;;;;;;;;;;4947790;28;20034;-61
2022/02/21 12:59:11;;;;;;;0.10;0.10;;;;;;;;;;4959725;28;20922;-63
2022/02/21 13:01:39;;;;;;;0.15;0.05;;;;;;;;;;4960983;28;20732;-61
2022/02/21 13:04:08;;;;;;;0.00;0.00;;;;;;;;;;4975125;28;20034;-63
2022/02/21 13:06:34;;;;;;;0.15;0.15;;;;;;;;;;4977134;28;20029;-61
2022/02/21 13:08:59;;;;;;;0.80;0.80;;;;;;;;;;4976568;28;21005;-61
2022/02/21 13:11:29;;;;;;;1.98;1.35;;;;;;;;;;4961776;28;20033;-63
2022/02/21 13:13:55;;;;;;;0.47;0.47;;;;;;;;;;4976172;28;20072;-60
2022/02/21 13:16:22;;;;;;;2.65;0.52;;;;;;;;;;4976153;28;20045;-61
2022/02/21 13:18:51;;;;;;;0.03;0.03;;;;;;;;;;4976191;28;20496;-60
2022/02/21 13:21:30;;;;;;;6.55;1.13;;;;;;;;;;4963886;28;20029;-60
2022/02/21 13:23:59;;;;;;;0.00;0.00;;;;;;;;;;4977028;28;20077;-62
2022/02/21 13:26:24;;;;;;;0.00;0.00;;;;;;;;;;4962342;28;20924;-61
2022/02/21 13:28:52;;;;;;;0.22;0.22;;;;;;;;;;4963781;28;20044;-61
2022/02/21 13:31:20;;;;;;;2.92;1.52;;;;;;;;;;4985290;28;20034;-62
2022/02/21 13:33:48;;;;;;;0.20;0.20;;;;;;;;;;4963609;28;20041;-61
2022/02/21 13:36:22;;;;;;;0.10;0.10;;;;;;;;;;4967989;28;20065;-60
2022/02/21 13:38:54;;;;;;;0.03;0.03;;;;;;;;;;4979295;28;20073;-61
2022/02/21 13:41:20;;;;;;;0.00;0.00;;;;;;;;;;4978414;28;21050;-61
2022/02/21 13:43:48;;;;;;;0.00;0.00;;;;;;;;;;4979669;28;20501;-62
2022/02/21 13:46:16;;;;;;;0.10;0.10;;;;;;;;;;4966980;28;20122;-62
2022/02/21 13:48:48;;;;;;;0.52;0.52;;;;;;;;;;4947690;28;20026;-62
2022/02/21 13:51:20;;;;;;;0.43;0.40;;;;;;;;;;4946662;28;20026;-62
2022/02/21 13:53:50;;;;;;;0.70;0.70;;;;;;;;;;4946338;28;20061;-65
2022/02/21 13:56:23;;;;;;;0.00;0.00;;;;;;;;;;4939563;28;20050;-61
2022/02/21 13:58:48;;;;;;;0.52;0.52;;;;;;;;;;4941391;28;20048;-62
2022/02/21 14:01:19;;;;;;;0.00;0.00;;;;;;;;;;4960641;28;20098;-62
2022/02/21 14:03:50;;;;;;;0.00;0.00;;;;;;;;;;4961419;28;20043;-63
2022/02/21 14:06:17;;;;;;;0.08;0.08;;;;;;;;;;4961512;28;20038;-60
2022/02/21 14:08:49;;;;;;;1.88;0.93;;;;;;;;;;4962029;28;20130;-62
2022/02/21 14:11:19;;;;;;;0.00;0.00;;;;;;;;;;4963136;28;20106;-60
2022/02/21 14:13:46;;;;;;;0.00;0.00;;;;;;;;;;4960504;28;20019;-61
2022/02/21 14:16:12;;;;;;;0.00;0.00;;;;;;;;;;4933624;28;20084;-63
2022/02/21 14:18:41;;;;;;;0.00;0.00;;;;;;;;;;4959153;28;22059;-62
2022/02/21 14:21:08;;;;;;;0.10;0.10;;;;;;;;;;4959317;28;20038;-62
2022/02/21 14:23:39;;;;;;;0.00;0.00;;;;;;;;;;4962950;28;20031;-62
2022/02/21 14:26:07;;;;;;;0.25;0.25;;;;;;;;;;4946885;28;21244;-60
2022/02/21 14:28:35;;;;;;;0.00;0.00;;;;;;;;;;4947972;28;20031;-63
2022/02/21 14:31:00;;;;;;;0.08;0.08;;;;;;;;;;4960809;28;20037;-63
2022/02/21 14:33:29;;;;;;;0.93;0.82;;;;;;;;;;4957514;28;20045;-59
2022/02/21 14:36:00;;;;;;;0.00;0.00;;;;;;;;;;4942784;28;20126;-63
2022/02/21 14:38:25;;;;;;;0.00;0.00;;;;;;;;;;4948039;28;20061;-61
2022/02/21 14:40:57;;;;;;;0.00;0.00;;;;;;;;;;4945571;28;20041;-64
2022/02/21 14:43:22;;;;;;;0.00;0.00;;;;;;;;;;4942435;28;20056;-63
2022/02/21 14:45:48;;;;;;;0.10;0.10;;;;;;;;;;4958474;28;20685;-62